Time;durP1;ratioP1;P1;durP2;ratioP2;P2;SDS_P1;SDS_P2;PMS_P1;PMS_P2;Temp;Humidity;BMP_temperature;BMP_pressure;BME280_temperature;BME280_humidity;BME280_pressure;Samples;Min_cycle;Max_cycle;Signal;HPM_P1;HPM_P2
2021/05/02 00:01:10;;;;;;;19.63;15.60;;;8.90;99.90;;;;;;5036037;28;20257;-83
2021/05/02 00:03:38;;;;;;;19.83;16.17;;;8.90;99.70;;;;;;5024119;28;20202;-81
2021/05/02 00:06:08;;;;;;;20.77;16.57;;;8.90;99.50;;;;;;5028158;28;20229;-81
2021/05/02 00:08:37;;;;;;;21.20;15.47;;;8.90;99.20;;;;;;5020244;28;20226;-86
2021/05/02 00:11:07;;;;;;;19.60;15.00;;;8.90;99.50;;;;;;5021276;28;20566;-82
2021/05/02 00:13:36;;;;;;;19.73;15.67;;;9.00;99.40;;;;;;5020113;28;20206;-81
2021/05/02 00:16:04;;;;;;;23.00;16.33;;;8.90;99.60;;;;;;5021286;28;20343;-83
2021/05/02 00:18:33;;;;;;;20.27;15.73;;;8.90;99.60;;;;;;5019449;28;20206;-87
2021/05/02 00:21:01;;;;;;;18.90;14.43;;;8.90;99.70;;;;;;5027011;28;20695;-82
2021/05/02 00:23:33;;;;;;;19.70;15.17;;;8.90;99.40;;;;;;5021854;28;20236;-85
2021/05/02 00:26:00;;;;;;;18.57;14.07;;;8.90;99.40;;;;;;5028347;28;20589;-80
2021/05/02 00:28:30;;;;;;;20.40;15.77;;;8.90;99.60;;;;;;5022004;28;20783;-83
2021/05/02 00:30:59;;;;;;;20.17;14.97;;;8.90;99.50;;;;;;5025707;28;20232;-84
2021/05/02 00:33:27;;;;;;;20.40;15.93;;;8.90;99.60;;;;;;5026101;28;20219;-83
2021/05/02 00:35:56;;;;;;;19.93;15.10;;;8.90;99.70;;;;;;5020645;28;21239;-81
2021/05/02 00:38:23;;;;;;;17.60;13.17;;;8.90;99.60;;;;;;5029694;28;20199;-82
2021/05/02 00:40:56;;;;;;;19.93;14.63;;;8.80;99.40;;;;;;5028785;28;20207;-85
2021/05/02 00:43:33;;;;;;;20.47;13.80;;;8.90;99.30;;;;;;5029422;28;20206;-80
2021/05/02 00:46:09;;;;;;;21.17;15.90;;;8.90;99.50;;;;;;5031540;28;20218;-83
2021/05/02 00:48:46;;;;;;;18.67;15.37;;;8.90;99.00;;;;;;5034944;28;20226;-81
2021/05/02 00:51:16;;;;;;;18.77;14.53;;;8.90;99.50;;;;;;5031579;28;20203;-81
2021/05/02 00:53:50;;;;;;;21.73;16.10;;;8.90;99.80;;;;;;5030960;28;20262;-81
2021/05/02 00:56:23;;;;;;;20.40;16.13;;;8.90;99.50;;;;;;5029827;28;20727;-82
2021/05/02 00:58:56;;;;;;;20.63;16.77;;;8.90;99.80;;;;;;5032391;28;20225;-83
2021/05/02 01:01:24;;;;;;;20.63;15.77;;;9.00;99.90;;;;;;5034886;28;20199;-82
2021/05/02 01:03:52;;;;;;;20.87;15.63;;;8.70;99.80;;;;;;5034731;28;20190;-83
2021/05/02 01:06:25;;;;;;;20.23;15.63;;;9.00;99.90;;;;;;5041979;28;20206;-81
2021/05/02 01:08:56;;;;;;;18.83;15.37;;;8.80;99.90;;;;;;5026300;28;20241;-83
2021/05/02 01:11:27;;;;;;;21.80;16.23;;;8.90;99.90;;;;;;5034460;28;20228;-82
2021/05/02 01:13:56;;;;;;;21.90;16.87;;;8.90;99.90;;;;;;5028546;28;20198;-83
2021/05/02 01:16:26;;;;;;;21.53;15.63;;;8.80;99.90;;;;;;5034350;28;20698;-81
2021/05/02 01:18:55;;;;;;;18.13;14.47;;;8.80;99.90;;;;;;5018812;28;20213;-84
2021/05/02 01:21:30;;;;;;;22.40;17.07;;;8.80;99.90;;;;;;5020425;28;20202;-81
2021/05/02 01:23:59;;;;;;;19.10;15.87;;;8.80;99.90;;;;;;5021864;28;20542;-83
2021/05/02 01:26:28;;;;;;;22.07;17.10;;;8.80;99.90;;;;;;5022458;28;20267;-81
2021/05/02 01:28:58;;;;;;;23.80;16.60;;;8.80;99.90;;;;;;5021590;28;20230;-85
2021/05/02 01:31:27;;;;;;;21.70;16.63;;;8.70;99.90;;;;;;5023187;28;20214;-82
2021/05/02 01:33:58;;;;;;;21.10;16.83;;;8.70;99.90;;;;;;5020640;28;20228;-81
2021/05/02 01:36:27;;;;;;;20.80;15.63;;;8.70;99.90;;;;;;5025931;28;20214;-80
2021/05/02 01:38:57;;;;;;;23.80;17.10;;;8.60;99.90;;;;;;5023056;28;20324;-84
2021/05/02 01:41:26;;;;;;;21.37;16.60;;;8.70;99.90;;;;;;5026322;28;20771;-81
2021/05/02 01:43:54;;;;;;;20.90;16.73;;;8.70;99.90;;;;;;5027865;28;20203;-84
2021/05/02 01:46:28;;;;;;;18.07;14.50;;;8.70;99.90;;;;;;5026044;28;20203;-83
2021/05/02 01:48:56;;;;;;;19.90;15.97;;;8.70;99.90;;;;;;5031402;28;20578;-83
2021/05/02 01:51:24;;;;;;;21.07;16.20;;;8.70;99.90;;;;;;5022133;28;20225;-83
2021/05/02 01:53:51;;;;;;;21.00;15.10;;;8.70;99.90;;;;;;5016756;28;20209;-86
2021/05/02 01:56:24;;;;;;;22.70;17.03;;;8.70;99.90;;;;;;5013725;28;20669;-82
2021/05/02 01:58:52;;;;;;;18.03;12.37;;;8.70;99.90;;;;;;5017848;28;20220;-82
2021/05/02 02:01:20;;;;;;;20.43;16.20;;;8.70;99.90;;;;;;5015525;28;20213;-83
2021/05/02 02:03:49;;;;;;;17.87;11.10;;;8.70;99.90;;;;;;5015728;28;20209;-81
2021/05/02 02:06:17;;;;;;;21.27;16.17;;;8.70;99.90;;;;;;5020941;28;20204;-83
2021/05/02 02:08:44;;;;;;;20.23;15.87;;;8.70;99.90;;;;;;5030360;28;20226;-81
2021/05/02 02:11:12;;;;;;;22.60;17.53;;;8.60;99.90;;;;;;5035643;28;20267;-81
2021/05/02 02:13:40;;;;;;;20.20;16.67;;;8.70;99.90;;;;;;5027399;28;20619;-79
2021/05/02 02:16:09;;;;;;;18.70;13.37;;;8.70;99.90;;;;;;5019223;28;20610;-85
2021/05/02 02:18:36;;;;;;;21.80;15.90;;;8.60;99.90;;;;;;5015189;28;20219;-82
2021/05/02 02:21:09;;;;;;;21.30;16.50;;;8.60;99.90;;;;;;5014146;28;20225;-83
2021/05/02 02:23:40;;;;;;;21.47;16.73;;;8.60;99.90;;;;;;5016303;28;20210;-81
2021/05/02 02:26:15;;;;;;;20.83;15.90;;;8.70;99.90;;;;;;5019954;28;20225;-81
2021/05/02 02:28:45;;;;;;;21.23;15.37;;;8.60;99.90;;;;;;5017751;28;20249;-82
2021/05/02 02:31:14;;;;;;;19.87;14.90;;;8.70;99.90;;;;;;5016552;28;20264;-84
2021/05/02 02:33:43;;;;;;;21.87;15.37;;;8.70;99.90;;;;;;5018576;28;20588;-81
2021/05/02 02:36:13;;;;;;;20.30;16.17;;;8.70;99.90;;;;;;5013191;28;20276;-83
2021/05/02 02:38:45;;;;;;;22.83;16.47;;;8.60;99.90;;;;;;5014431;28;20232;-88
2021/05/02 02:41:15;;;;;;;21.00;15.93;;;8.60;99.90;;;;;;5016287;28;20265;-86
2021/05/02 02:43:51;;;;;;;22.17;15.30;;;8.50;99.90;;;;;;5019902;28;20243;-85
2021/05/02 02:46:21;;;;;;;20.67;15.97;;;8.60;99.90;;;;;;5014337;28;20220;-82
2021/05/02 02:48:55;;;;;;;11.67;9.23;;;8.60;99.90;;;;;;5012955;28;20234;-83
2021/05/02 02:51:25;;;;;;;22.93;16.13;;;8.70;99.90;;;;;;5024041;28;20199;-83
2021/05/02 02:53:56;;;;;;;17.47;14.07;;;8.70;99.90;;;;;;5017154;28;20202;-83
2021/05/02 02:56:24;;;;;;;18.23;14.13;;;8.70;99.90;;;;;;5017196;28;20238;-81
2021/05/02 02:58:57;;;;;;;22.60;16.07;;;8.70;99.90;;;;;;5012037;28;20292;-81
2021/05/02 03:01:26;;;;;;;19.17;15.60;;;8.70;99.90;;;;;;5020807;28;20217;-81
2021/05/02 03:03:57;;;;;;;20.70;15.37;;;8.70;99.90;;;;;;5018152;28;20686;-82
2021/05/02 03:06:26;;;;;;;21.03;16.23;;;8.70;99.90;;;;;;5023612;28;20443;-84
2021/05/02 03:08:55;;;;;;;19.30;15.43;;;8.60;99.90;;;;;;5027888;28;20332;-84
2021/05/02 03:11:25;;;;;;;20.13;15.17;;;8.70;99.90;;;;;;5025008;28;20225;-82
2021/05/02 03:13:53;;;;;;;14.63;9.03;;;8.60;99.90;;;;;;5023681;28;20203;-83
2021/05/02 03:16:25;;;;;;;18.03;13.53;;;8.70;99.90;;;;;;5022060;28;20473;-83
2021/05/02 03:18:59;;;;;;;22.90;14.93;;;8.70;99.90;;;;;;5024444;28;20215;-83
2021/05/02 03:21:34;;;;;;;15.70;9.80;;;8.70;99.90;;;;;;5025744;28;20205;-81
2021/05/02 03:24:05;;;;;;;17.83;13.53;;;8.70;99.90;;;;;;5021933;28;20267;-83
2021/05/02 03:26:34;;;;;;;18.90;14.53;;;8.70;99.90;;;;;;5035604;28;20507;-82
2021/05/02 03:29:04;;;;;;;23.33;15.80;;;8.60;99.90;;;;;;5036078;28;20223;-83
2021/05/02 03:31:35;;;;;;;19.23;14.67;;;8.70;99.90;;;;;;5025571;28;20197;-81
2021/05/02 03:34:05;;;;;;;21.20;15.47;;;8.60;99.90;;;;;;5027456;28;20222;-81
2021/05/02 03:36:34;;;;;;;20.07;15.10;;;8.60;99.90;;;;;;5037978;28;20589;-81
2021/05/02 03:39:04;;;;;;;21.53;13.93;;;8.80;99.90;;;;;;5030416;28;20607;-81
2021/05/02 03:41:34;;;;;;;19.57;14.13;;;8.70;99.90;;;;;;5035870;28;20213;-82
2021/05/02 03:44:02;;;;;;;20.90;16.03;;;8.70;99.90;;;;;;5043192;28;20209;-83
2021/05/02 03:46:30;;;;;;;22.07;16.50;;;8.70;99.90;;;;;;5039256;28;20206;-82
2021/05/02 03:49:00;;;;;;;15.40;11.60;;;8.70;99.90;;;;;;5040708;28;20258;-81
2021/05/02 03:51:30;;;;;;;19.80;15.43;;;8.70;99.90;;;;;;5042542;28;20206;-82
2021/05/02 03:53:59;;;;;;;17.80;12.63;;;8.70;99.90;;;;;;5039585;28;20197;-83
2021/05/02 03:56:35;;;;;;;20.70;14.77;;;8.70;99.90;;;;;;5044107;28;20196;-81
2021/05/02 03:59:11;;;;;;;13.93;9.57;;;8.70;99.90;;;;;;5031734;28;20209;-82
2021/05/02 04:01:43;;;;;;;17.03;13.43;;;8.70;99.90;;;;;;5027382;28;20676;-81
2021/05/02 04:04:13;;;;;;;19.73;15.77;;;8.80;99.90;;;;;;5021936;28;20199;-81
2021/05/02 04:06:42;;;;;;;22.10;16.20;;;8.80;99.90;;;;;;5040243;28;20205;-83
2021/05/02 04:09:11;;;;;;;22.20;15.57;;;8.80;99.90;;;;;;5040998;28;20238;-83
2021/05/02 04:11:39;;;;;;;19.70;15.40;;;8.80;99.90;;;;;;5044399;28;20191;-81
2021/05/02 04:14:08;;;;;;;21.27;16.23;;;8.80;99.90;;;;;;5040264;28;21052;-81
2021/05/02 04:16:37;;;;;;;20.17;15.60;;;8.80;99.90;;;;;;5040810;28;20193;-83
2021/05/02 04:19:05;;;;;;;20.90;15.97;;;8.80;99.90;;;;;;5040434;28;20220;-85
2021/05/02 04:21:36;;;;;;;12.40;9.87;;;8.80;99.90;;;;;;5025674;28;20211;-84
2021/05/02 04:24:04;;;;;;;17.77;14.57;;;8.90;99.90;;;;;;5016531;28;20207;-81
2021/05/02 04:26:32;;;;;;;19.57;14.00;;;8.90;99.90;;;;;;5020359;28;20264;-83
2021/05/02 04:29:00;;;;;;;19.53;14.37;;;8.90;99.90;;;;;;5015342;28;20264;-87
2021/05/02 04:31:27;;;;;;;17.87;13.73;;;9.00;99.90;;;;;;5028354;28;20541;-83
2021/05/02 04:33:58;;;;;;;21.43;16.47;;;8.90;99.90;;;;;;5025297;28;20213;-83
2021/05/02 04:36:26;;;;;;;19.83;15.23;;;9.00;99.90;;;;;;5018232;28;20211;-82
2021/05/02 04:38:54;;;;;;;19.07;15.30;;;9.00;99.90;;;;;;5022115;28;20538;-84
2021/05/02 04:41:22;;;;;;;17.13;13.07;;;9.00;99.90;;;;;;5017020;28;20233;-83
2021/05/02 04:43:50;;;;;;;19.87;15.87;;;9.10;99.90;;;;;;5038129;28;20357;-82
2021/05/02 04:46:18;;;;;;;19.50;14.77;;;9.10;99.90;;;;;;5045423;28;20191;-82
2021/05/02 04:48:46;;;;;;;18.93;14.73;;;9.10;99.90;;;;;;5040601;28;20219;-81
2021/05/02 04:51:14;;;;;;;19.40;14.80;;;9.10;99.90;;;;;;5044429;28;20218;-81
2021/05/02 04:53:43;;;;;;;18.33;13.53;;;9.20;99.90;;;;;;5039740;28;20350;-81
2021/05/02 04:56:12;;;;;;;17.10;13.53;;;9.20;99.90;;;;;;5034971;28;20206;-81
2021/05/02 04:58:40;;;;;;;18.77;13.73;;;9.20;99.90;;;;;;5032487;28;20210;-82
2021/05/02 05:01:08;;;;;;;19.87;14.83;;;9.20;99.90;;;;;;5033317;28;20206;-81
2021/05/02 05:03:36;;;;;;;19.40;15.60;;;9.20;99.90;;;;;;5038019;28;20203;-81
2021/05/02 05:06:04;;;;;;;18.20;13.03;;;9.20;99.90;;;;;;5030647;28;20398;-83
2021/05/02 05:08:32;;;;;;;17.70;14.17;;;9.30;99.90;;;;;;5031299;28;20227;-81
2021/05/02 05:10:59;;;;;;;16.07;11.93;;;9.30;99.90;;;;;;5022718;28;20214;-84
2021/05/02 05:13:28;;;;;;;20.07;13.07;;;9.40;99.90;;;;;;5026607;28;20638;-82
2021/05/02 05:15:56;;;;;;;17.17;13.03;;;9.40;99.90;;;;;;5027747;28;20210;-83
2021/05/02 05:18:24;;;;;;;19.47;14.50;;;9.40;99.90;;;;;;5037609;28;20191;-82
2021/05/02 05:20:53;;;;;;;19.37;15.17;;;9.50;99.90;;;;;;5042742;28;20194;-82
2021/05/02 05:23:21;;;;;;;17.23;13.40;;;9.50;99.90;;;;;;5039118;28;20225;-84
2021/05/02 05:25:49;;;;;;;16.57;11.17;;;9.60;99.80;;;;;;5041602;28;20183;-81
2021/05/02 05:28:16;;;;;;;18.93;14.63;;;9.60;98.80;;;;;;5040839;28;20187;-82
2021/05/02 05:30:45;;;;;;;14.10;10.57;;;9.70;99.20;;;;;;5039885;28;20349;-83
2021/05/02 05:33:12;;;;;;;18.53;14.03;;;9.60;98.70;;;;;;5042993;28;20258;-82
2021/05/02 05:35:40;;;;;;;16.73;14.63;;;9.70;99.20;;;;;;5044989;28;20183;-83
2021/05/02 05:38:09;;;;;;;17.77;14.43;;;9.70;98.60;;;;;;5039472;28;20210;-82
2021/05/02 05:40:37;;;;;;;18.10;14.00;;;9.70;98.50;;;;;;5038973;28;20260;-83
2021/05/02 05:43:04;;;;;;;17.43;14.20;;;9.80;98.60;;;;;;5038738;28;20203;-84
2021/05/02 05:45:33;;;;;;;17.87;14.67;;;9.70;98.40;;;;;;5042851;28;20217;-82
2021/05/02 05:48:01;;;;;;;18.37;14.53;;;9.70;98.90;;;;;;5016154;28;20212;-86
2021/05/02 05:50:30;;;;;;;15.80;14.10;;;9.80;99.00;;;;;;5041435;28;20222;-81
2021/05/02 05:52:57;;;;;;;19.67;15.97;;;9.80;98.70;;;;;;5040755;28;20190;-83
2021/05/02 05:55:25;;;;;;;17.07;14.03;;;9.80;99.00;;;;;;5039083;28;20298;-82
2021/05/02 05:57:53;;;;;;;11.27;8.60;;;9.80;99.20;;;;;;5027811;28;20253;-85
2021/05/02 06:00:22;;;;;;;17.00;12.67;;;9.80;98.60;;;;;;5015283;28;20214;-85
2021/05/02 06:02:50;;;;;;;17.67;14.83;;;9.80;98.80;;;;;;5020472;28;20293;-83
2021/05/02 06:05:19;;;;;;;17.57;14.10;;;9.80;98.80;;;;;;5016698;28;20199;-82
2021/05/02 06:07:46;;;;;;;17.43;12.73;;;9.90;98.70;;;;;;5018562;28;20401;-82
2021/05/02 06:10:14;;;;;;;19.20;13.87;;;9.90;98.60;;;;;;5023937;28;20234;-83
2021/05/02 06:12:42;;;;;;;17.80;13.87;;;9.90;98.30;;;;;;5025355;28;20411;-82
2021/05/02 06:15:12;;;;;;;16.43;12.20;;;9.90;98.60;;;;;;5025123;28;20462;-82
2021/05/02 06:17:40;;;;;;;18.33;14.37;;;9.90;98.50;;;;;;5022536;28;20216;-80
2021/05/02 06:20:09;;;;;;;17.90;13.33;;;10.00;98.30;;;;;;5023786;28;20684;-84
2021/05/02 06:22:37;;;;;;;18.73;13.53;;;10.10;98.10;;;;;;5028125;28;20207;-81
2021/05/02 06:25:07;;;;;;;16.43;14.23;;;10.10;97.20;;;;;;5022881;28;20207;-82
2021/05/02 06:27:35;;;;;;;16.30;12.73;;;10.10;97.00;;;;;;5034320;28;20695;-82
2021/05/02 06:30:04;;;;;;;20.03;13.73;;;10.20;97.10;;;;;;5031729;28;20227;-84
2021/05/02 06:32:31;;;;;;;16.23;12.33;;;10.30;96.10;;;;;;5028739;28;20252;-80
2021/05/02 06:34:59;;;;;;;17.10;12.50;;;10.20;96.10;;;;;;5040148;28;20194;-82
2021/05/02 06:37:27;;;;;;;14.73;12.80;;;10.30;96.00;;;;;;5037755;28;20187;-83
2021/05/02 06:39:56;;;;;;;16.93;12.57;;;10.30;95.70;;;;;;5045353;28;20190;-81
2021/05/02 06:42:23;;;;;;;17.63;13.60;;;10.40;95.30;;;;;;5041715;28;20380;-83
2021/05/02 06:44:51;;;;;;;15.33;10.60;;;10.40;95.60;;;;;;5038210;28;20242;-82
2021/05/02 06:47:19;;;;;;;16.40;13.03;;;10.40;95.60;;;;;;5033104;28;20276;-84
2021/05/02 06:49:47;;;;;;;10.47;8.20;;;10.40;95.60;;;;;;5043262;28;20231;-82
2021/05/02 06:52:16;;;;;;;11.10;9.33;;;10.40;95.20;;;;;;5034616;28;20213;-83
2021/05/02 06:54:45;;;;;;;15.77;12.77;;;10.40;95.40;;;;;;5033722;28;20196;-82
2021/05/02 06:57:13;;;;;;;16.13;12.53;;;10.40;95.60;;;;;;5025760;28;20213;-82
2021/05/02 06:59:42;;;;;;;14.37;11.07;;;10.40;96.10;;;;;;5026774;28;20218;-81
2021/05/02 07:02:10;;;;;;;15.87;12.43;;;10.50;95.10;;;;;;5023239;28;20216;-84
2021/05/02 07:04:38;;;;;;;13.60;10.07;;;10.50;95.10;;;;;;5025609;28;20206;-83
2021/05/02 07:07:06;;;;;;;11.57;9.40;;;10.50;94.70;;;;;;5027921;28;20228;-84
2021/05/02 07:09:34;;;;;;;13.63;10.80;;;10.50;94.20;;;;;;5026741;28;20317;-81
2021/05/02 07:12:02;;;;;;;10.43;7.90;;;10.50;94.70;;;;;;5032846;28;20211;-81
2021/05/02 07:14:31;;;;;;;19.03;12.67;;;10.50;94.60;;;;;;5028386;28;20257;-83
2021/05/02 07:16:59;;;;;;;13.40;10.87;;;10.50;94.70;;;;;;5024685;28;20214;-84
2021/05/02 07:19:26;;;;;;;15.53;12.93;;;10.50;94.90;;;;;;5017999;28;20343;-82
2021/05/02 07:21:58;;;;;;;15.23;12.00;;;10.60;94.80;;;;;;5019330;28;20294;-82
2021/05/02 07:24:26;;;;;;;16.60;12.67;;;10.50;94.60;;;;;;5023648;28;20420;-84
2021/05/02 07:26:53;;;;;;;11.07;9.03;;;10.60;94.50;;;;;;5026073;28;20219;-82
2021/05/02 07:29:21;;;;;;;14.47;12.33;;;10.60;94.20;;;;;;5018080;28;20226;-84
2021/05/02 07:31:50;;;;;;;12.40;10.17;;;10.60;94.90;;;;;;5018086;28;20299;-83
2021/05/02 07:34:19;;;;;;;11.80;9.43;;;10.60;94.60;;;;;;5022805;28;20210;-82
2021/05/02 07:36:47;;;;;;;11.67;10.47;;;10.60;94.00;;;;;;5026651;28;20199;-81
2021/05/02 07:39:15;;;;;;;13.03;8.90;;;10.60;94.30;;;;;;5025632;28;20206;-81
2021/05/02 07:41:43;;;;;;;17.37;13.40;;;10.50;95.80;;;;;;5031639;28;20284;-83
2021/05/02 07:44:11;;;;;;;15.30;11.40;;;10.50;97.00;;;;;;5025293;28;20218;-82
2021/05/02 07:46:39;;;;;;;16.07;12.17;;;10.50;96.80;;;;;;5025774;28;20206;-82
2021/05/02 07:49:08;;;;;;;13.87;11.47;;;10.50;97.80;;;;;;5028254;28;20263;-81
2021/05/02 07:51:36;;;;;;;13.37;11.10;;;10.60;98.40;;;;;;5024662;28;20557;-82
2021/05/02 07:54:05;;;;;;;10.27;8.93;;;10.50;96.70;;;;;;5026631;28;20632;-82
2021/05/02 07:56:32;;;;;;;15.40;13.27;;;10.40;97.50;;;;;;5023503;28;20705;-82
2021/05/02 07:59:01;;;;;;;17.37;11.70;;;10.40;98.20;;;;;;5025457;28;20194;-81
2021/05/02 08:01:28;;;;;;;13.63;10.33;;;10.40;97.80;;;;;;5018953;28;20642;-82
2021/05/02 08:03:56;;;;;;;12.87;10.53;;;10.40;98.00;;;;;;5021278;28;20580;-83
2021/05/02 08:06:25;;;;;;;15.97;13.13;;;10.40;97.70;;;;;;5018473;28;20207;-83
2021/05/02 08:08:53;;;;;;;16.03;13.23;;;10.40;97.90;;;;;;5022614;28;20203;-81
2021/05/02 08:11:21;;;;;;;15.80;12.50;;;10.40;98.60;;;;;;5024062;28;20266;-83
2021/05/02 08:13:51;;;;;;;18.47;12.63;;;10.30;99.90;;;;;;5036739;28;20226;-82
2021/05/02 08:16:20;;;;;;;10.57;8.27;;;10.30;99.90;;;;;;5032378;28;20223;-80
2021/05/02 08:18:49;;;;;;;14.23;11.33;;;10.30;99.90;;;;;;5026873;28;20205;-83
2021/05/02 08:21:17;;;;;;;12.57;10.23;;;10.30;99.90;;;;;;5016297;28;20367;-83
2021/05/02 08:23:46;;;;;;;16.70;12.67;;;10.20;99.90;;;;;;5015838;28;20208;-84
2021/05/02 08:26:14;;;;;;;16.87;11.60;;;10.10;99.90;;;;;;5018063;28;20231;-81
2021/05/02 08:28:42;;;;;;;13.77;10.97;;;10.20;99.90;;;;;;5018501;28;20207;-83
2021/05/02 08:31:11;;;;;;;14.63;10.60;;;10.20;99.90;;;;;;5011672;28;20298;-82
2021/05/02 08:33:42;;;;;;;17.87;14.43;;;10.30;99.90;;;;;;5017789;28;20215;-85
2021/05/02 08:36:10;;;;;;;14.93;12.07;;;10.30;99.90;;;;;;5017706;28;20199;-82
2021/05/02 08:38:38;;;;;;;13.57;9.87;;;10.30;99.90;;;;;;5017935;28;20534;-82
2021/05/02 08:41:07;;;;;;;13.47;11.17;;;10.30;99.90;;;;;;5020011;28;20210;-83
2021/05/02 08:43:36;;;;;;;17.23;12.30;;;10.30;99.90;;;;;;5016550;28;20199;-82
2021/05/02 08:46:04;;;;;;;14.67;10.60;;;10.30;99.90;;;;;;5012616;28;20819;-82
2021/05/02 08:48:33;;;;;;;13.87;11.57;;;10.30;99.90;;;;;;5013559;28;20207;-82
2021/05/02 08:51:00;;;;;;;17.67;13.40;;;10.30;99.90;;;;;;5017206;28;20241;-81
2021/05/02 08:53:28;;;;;;;15.53;11.83;;;10.20;99.90;;;;;;5013356;28;20202;-83
2021/05/02 08:55:56;;;;;;;22.47;17.63;;;10.10;99.90;;;;;;5020793;28;20832;-83
2021/05/02 08:58:25;;;;;;;18.33;13.60;;;10.10;99.90;;;;;;5022552;28;20214;-83
2021/05/02 09:00:56;;;;;;;22.33;17.53;;;10.00;99.90;;;;;;5035461;28;20186;-82
2021/05/02 09:03:38;;;;;;;24.67;18.27;;;9.90;99.90;;;;;;5019748;28;20224;-84
2021/05/02 09:06:16;;;;;;;21.40;17.40;;;9.90;99.90;;;;;;5016901;28;20425;-83
2021/05/02 09:08:50;;;;;;;23.27;18.13;;;9.90;99.90;;;;;;5023130;28;20207;-81
2021/05/02 09:11:29;;;;;;;20.93;16.60;;;9.90;99.90;;;;;;5027291;28;20218;-82
2021/05/02 09:13:59;;;;;;;22.07;17.50;;;9.90;99.90;;;;;;5024952;28;20198;-86
2021/05/02 09:16:27;;;;;;;22.47;19.03;;;9.90;99.90;;;;;;5019118;28;20230;-81
2021/05/02 09:18:59;;;;;;;22.43;17.43;;;9.80;99.90;;;;;;5022332;28;20328;-83
2021/05/02 09:21:29;;;;;;;24.70;16.73;;;9.80;99.90;;;;;;5025538;28;20289;-84
2021/05/02 09:23:59;;;;;;;25.57;18.37;;;9.80;99.90;;;;;;5032180;28;20206;-84
2021/05/02 09:26:28;;;;;;;25.83;19.73;;;9.70;99.90;;;;;;5030993;28;20207;-83
2021/05/02 09:29:00;;;;;;;25.30;19.33;;;9.70;99.90;;;;;;5029523;28;20202;-82
2021/05/02 09:31:30;;;;;;;26.10;19.87;;;9.70;99.90;;;;;;5033480;28;20249;-81
2021/05/02 09:34:12;;;;;;;26.70;20.73;;;9.70;99.90;;;;;;5029265;28;20218;-82
2021/05/02 09:36:51;;;;;;;28.40;20.60;;;9.70;99.90;;;;;;5031735;28;20257;-84
2021/05/02 09:39:42;;;;;;;25.13;18.10;;;9.70;99.90;;;;;;5027784;28;20202;-81
2021/05/02 09:42:11;;;;;;;27.60;21.43;;;9.70;99.90;;;;;;5031893;28;20231;-82
2021/05/02 09:44:46;;;;;;;30.33;22.40;;;9.70;99.90;;;;;;5028523;28;20217;-84
2021/05/02 09:47:24;;;;;;;30.73;23.33;;;9.70;99.90;;;;;;5021035;28;20272;-83
2021/05/02 09:50:11;;;;;;;33.03;23.20;;;9.70;99.90;;;;;;5026755;28;20230;-83
2021/05/02 09:53:01;;;;;;;32.30;23.67;;;9.70;99.90;;;;;;5017292;28;20290;-83
2021/05/02 09:55:34;;;;;;;29.60;22.17;;;9.70;99.90;;;;;;5021645;28;20206;-82
2021/05/02 09:58:06;;;;;;;30.33;23.17;;;9.60;99.90;;;;;;5020852;28;20210;-82
2021/05/02 10:00:37;;;;;;;30.50;23.03;;;9.60;99.90;;;;;;5020802;28;20484;-83
2021/05/02 10:03:08;;;;;;;30.97;20.80;;;9.70;99.90;;;;;;5021455;28;20221;-84
2021/05/02 10:05:51;;;;;;;34.30;24.90;;;9.70;99.90;;;;;;5018738;28;21066;-84
2021/05/02 10:08:20;;;;;;;31.17;21.63;;;9.60;99.90;;;;;;5022572;28;20202;-85
2021/05/02 10:10:50;;;;;;;35.17;25.47;;;9.70;99.90;;;;;;5015261;28;20233;-83
2021/05/02 10:13:18;;;;;;;34.17;21.47;;;9.70;99.90;;;;;;5024489;28;20217;-79
2021/05/02 10:15:49;;;;;;;37.93;27.47;;;9.90;99.90;;;;;;5016564;28;20217;-84
2021/05/02 10:18:17;;;;;;;31.57;20.77;;;9.70;99.90;;;;;;5022365;28;20225;-84
2021/05/02 10:20:46;;;;;;;33.90;24.50;;;9.70;99.90;;;;;;5029039;28;20211;-82
2021/05/02 10:23:14;;;;;;;34.03;23.93;;;9.70;99.90;;;;;;5021208;28;20206;-83
2021/05/02 10:25:42;;;;;;;34.03;24.47;;;9.70;99.90;;;;;;5017795;28;20203;-84
2021/05/02 10:28:15;;;;;;;32.00;24.30;;;9.80;99.90;;;;;;5016435;28;20215;-86
2021/05/02 10:30:48;;;;;;;33.23;23.17;;;9.80;99.90;;;;;;5022229;28;20736;-81
2021/05/02 10:33:31;;;;;;;37.93;27.33;;;9.80;99.90;;;;;;5027194;28;20203;-82
2021/05/02 10:36:03;;;;;;;33.90;24.70;;;9.70;99.90;;;;;;5040723;28;20207;-82
2021/05/02 10:38:50;;;;;;;34.10;24.50;;;9.80;99.90;;;;;;5035510;28;20273;-84
2021/05/02 10:41:26;;;;;;;33.30;26.33;;;9.80;99.90;;;;;;5039985;28;20219;-82
2021/05/02 10:43:55;;;;;;;35.63;25.27;;;9.80;99.90;;;;;;5034606;28;20261;-83
2021/05/02 10:46:45;;;;;;;39.77;27.33;;;9.80;99.90;;;;;;5031838;28;20362;-84
2021/05/02 10:49:54;;;;;;;38.07;27.17;;;9.90;99.90;;;;;;5033796;28;20211;-85
2021/05/02 10:52:32;;;;;;;36.07;26.77;;;9.90;99.90;;;;;;5026615;28;20207;-83
2021/05/02 10:55:12;;;;;;;34.77;25.83;;;9.90;99.90;;;;;;5017856;28;20222;-84
2021/05/02 10:57:40;;;;;;;36.87;25.30;;;9.90;99.90;;;;;;5014933;28;20230;-83
2021/05/02 11:00:09;;;;;;;35.60;26.50;;;9.90;99.90;;;;;;5022653;28;20293;-84
2021/05/02 11:02:40;;;;;;;36.40;26.87;;;9.90;99.90;;;;;;5020054;28;20307;-83
2021/05/02 11:05:11;;;;;;;36.17;26.97;;;9.90;99.90;;;;;;5020947;28;20202;-83
2021/05/02 11:07:40;;;;;;;37.47;27.87;;;10.00;99.90;;;;;;5018453;28;20207;-83
2021/05/02 11:10:10;;;;;;;35.40;27.30;;;10.00;99.90;;;;;;5020188;28;20248;-82
2021/05/02 11:12:38;;;;;;;35.63;26.50;;;10.10;99.90;;;;;;5015012;28;20258;-86
2021/05/02 11:15:33;;;;;;;38.50;27.90;;;10.10;99.90;;;;;;5012887;28;20211;-85
2021/05/02 11:18:01;;;;;;;41.47;28.97;;;10.10;99.90;;;;;;5006700;28;20342;-83
2021/05/02 11:20:49;;;;;;;37.17;28.13;;;10.10;99.90;;;;;;5016852;28;20928;-83
2021/05/02 11:23:18;;;;;;;38.40;28.13;;;10.20;99.90;;;;;;5014611;28;20652;-82
2021/05/02 11:25:52;;;;;;;37.30;28.00;;;10.30;99.90;;;;;;5019356;28;20194;-82
2021/05/02 11:28:45;;;;;;;38.43;28.07;;;10.20;99.90;;;;;;5029951;28;20210;-81
2021/05/02 11:31:13;;;;;;;38.00;26.70;;;10.20;99.90;;;;;;5028171;28;20793;-84
2021/05/02 11:33:41;;;;;;;37.73;27.17;;;10.20;99.90;;;;;;5029239;28;20221;-84
2021/05/02 11:36:10;;;;;;;38.60;28.60;;;10.20;99.90;;;;;;5025531;28;20842;-81
2021/05/02 11:38:44;;;;;;;40.43;29.37;;;10.30;99.90;;;;;;5025818;28;20210;-87
2021/05/02 11:41:12;;;;;;;36.50;28.40;;;10.30;99.90;;;;;;5021271;28;20207;-86
2021/05/02 11:43:44;;;;;;;39.97;29.13;;;10.30;99.90;;;;;;5020773;28;20518;-84
2021/05/02 11:46:22;;;;;;;42.03;30.03;;;10.40;99.90;;;;;;5024606;28;20202;-83
2021/05/02 11:48:51;;;;;;;40.93;30.97;;;10.40;99.90;;;;;;5019388;28;20215;-83
2021/05/02 11:51:24;;;;;;;43.00;32.67;;;10.50;99.90;;;;;;5022380;28;20218;-83
2021/05/02 11:53:54;;;;;;;45.70;34.13;;;10.50;99.90;;;;;;5018791;28;20245;-83
2021/05/02 11:56:27;;;;;;;47.30;33.77;;;10.60;99.90;;;;;;5032115;28;20944;-83
2021/05/02 11:58:56;;;;;;;41.23;27.40;;;10.70;99.90;;;;;;5020392;28;20214;-82
2021/05/02 12:01:27;;;;;;;38.97;27.13;;;10.80;99.90;;;;;;5020241;28;20211;-84
2021/05/02 12:04:02;;;;;;;45.60;31.70;;;10.90;99.90;;;;;;5019993;28;20224;-82
2021/05/02 12:06:33;;;;;;;28.60;19.80;;;11.00;99.90;;;;;;5025286;28;20543;-83
2021/05/02 12:09:03;;;;;;;38.33;25.53;;;11.10;99.90;;;;;;5026833;28;20450;-82
2021/05/02 12:11:31;;;;;;;42.03;30.47;;;11.20;99.90;;;;;;5023648;28;21092;-83
2021/05/02 12:14:02;;;;;;;41.90;29.57;;;11.30;99.90;;;;;;5036778;28;20202;-84
2021/05/02 12:16:30;;;;;;;43.63;32.37;;;11.40;99.90;;;;;;5031714;28;20254;-85
2021/05/02 12:19:01;;;;;;;42.03;29.53;;;11.40;99.90;;;;;;5016975;28;20213;-86
2021/05/02 12:21:36;;;;;;;46.80;34.30;;;11.50;99.90;;;;;;5040451;28;20237;-85
2021/05/02 12:24:12;;;;;;;46.00;34.87;;;11.50;99.90;;;;;;5025906;28;20197;-82
2021/05/02 12:26:43;;;;;;;47.17;35.77;;;11.60;99.90;;;;;;5023264;28;20221;-82
2021/05/02 12:29:13;;;;;;;46.13;33.77;;;11.60;99.90;;;;;;5021688;28;20406;-83
2021/05/02 12:31:42;;;;;;;43.47;30.93;;;11.50;99.90;;;;;;5032551;28;20238;-81
2021/05/02 12:34:13;;;;;;;43.10;27.77;;;11.60;99.90;;;;;;5027836;28;20310;-83
2021/05/02 12:36:41;;;;;;;44.47;34.93;;;11.70;99.90;;;;;;5023394;28;20215;-84
2021/05/02 12:39:12;;;;;;;45.97;34.13;;;11.70;99.90;;;;;;5021511;28;20203;-81
2021/05/02 12:41:41;;;;;;;48.17;35.97;;;11.70;99.90;;;;;;5023090;28;20203;-86
2021/05/02 12:44:14;;;;;;;43.10;34.53;;;11.70;99.90;;;;;;5025099;28;20202;-81
2021/05/02 12:46:43;;;;;;;49.20;37.40;;;11.70;99.90;;;;;;5025509;28;20203;-83
2021/05/02 12:49:16;;;;;;;45.80;35.87;;;11.70;99.90;;;;;;5023881;28;20210;-83